createdAt,value
2018-09-14T00:01:42.162Z,3.30
2018-09-14T00:04:12.398Z,2.90
2018-09-14T00:06:43.085Z,3.07
2018-09-14T00:09:14.405Z,3.00
2018-09-14T00:12:16.081Z,3.03
2018-09-14T00:14:46.369Z,3.60
2018-09-14T00:17:17.096Z,2.70
2018-09-14T00:19:47.624Z,2.53
2018-09-14T00:22:18.576Z,2.90
2018-09-14T00:24:49.193Z,2.87
2018-09-14T00:27:19.598Z,3.67
2018-09-14T00:29:50.314Z,4.33
2018-09-14T00:32:21.834Z,4.60
2018-09-14T00:34:51.987Z,4.60
2018-09-14T00:37:22.241Z,4.07
2018-09-14T00:39:52.931Z,4.00
2018-09-14T00:42:24.539Z,4.80
2018-09-14T00:44:55.274Z,4.10
2018-09-14T00:47:25.893Z,4.53
2018-09-14T00:49:56.728Z,4.43
2018-09-14T00:52:27.985Z,6.20
2018-09-14T00:54:57.991Z,5.93
2018-09-14T00:57:28.443Z,4.00
2018-09-14T00:59:59.005Z,4.77
2018-09-14T01:02:29.786Z,5.40
2018-09-14T01:05:00.526Z,4.83
2018-09-14T01:07:31.052Z,4.43
2018-09-14T01:10:01.269Z,5.17
2018-09-14T01:12:31.934Z,4.30
2018-09-14T01:15:02.491Z,5.20
2018-09-14T01:17:33.054Z,5.50
2018-09-14T01:20:03.840Z,5.73
2018-09-14T01:22:34.918Z,5.00
2018-09-14T01:25:05.494Z,5.37
2018-09-14T01:27:35.881Z,4.90
2018-09-14T01:30:06.669Z,5.10
2018-09-14T01:32:37.985Z,5.17
2018-09-14T01:35:13.048Z,4.13
2018-09-14T01:37:43.829Z,4.40
2018-09-14T01:40:14.246Z,6.67
2018-09-14T01:42:45.377Z,4.40
2018-09-14T01:45:15.934Z,5.63
2018-09-14T01:47:46.651Z,5.00
2018-09-14T01:50:17.267Z,5.73
2018-09-14T01:52:48.983Z,5.67
2018-09-14T01:55:19.463Z,4.53
2018-09-14T01:59:14.211Z,5.80
2018-09-14T02:01:44.478Z,4.50
2018-09-14T02:04:15.006Z,4.50
2018-09-14T02:06:45.197Z,4.07
2018-09-14T02:09:15.533Z,4.80
2018-09-14T02:11:46.186Z,4.50
2018-09-14T02:14:16.403Z,3.83
2018-09-14T02:16:47.155Z,3.67
2018-09-14T02:19:17.658Z,3.70
2018-09-14T02:21:49.371Z,4.20
2018-09-14T02:24:19.908Z,3.97
2018-09-14T02:26:50.615Z,3.70
2018-09-14T02:29:21.003Z,3.80
2018-09-14T02:31:52.028Z,3.60
2018-09-14T02:34:22.592Z,3.33
2018-09-14T02:36:53.341Z,2.90
2018-09-14T02:39:24.055Z,3.60
2018-09-14T02:41:54.969Z,3.13
2018-09-14T02:44:25.527Z,3.77
2018-09-14T02:46:56.141Z,4.00
2018-09-14T02:49:26.584Z,4.07
2018-09-14T02:51:58.117Z,4.40
2018-09-14T02:54:28.869Z,3.40
2018-09-14T02:56:59.518Z,3.80
2018-09-14T02:59:30.282Z,2.87
2018-09-14T03:02:00.871Z,4.23
2018-09-14T03:04:31.390Z,3.80
2018-09-14T03:07:02.018Z,6.00
2018-09-14T03:09:32.551Z,6.23
2018-09-14T03:12:03.692Z,4.73
2018-09-14T03:14:34.224Z,4.60
2018-09-14T03:17:05.103Z,4.77
2018-09-14T03:19:35.471Z,3.90
2018-09-14T03:22:06.577Z,3.53
2018-09-14T03:24:36.965Z,4.13
2018-09-14T03:27:07.053Z,3.97
2018-09-14T03:29:37.665Z,4.40
2018-09-14T03:32:08.829Z,4.30
2018-09-14T03:34:39.163Z,4.70
2018-09-14T03:37:09.341Z,5.10
2018-09-14T03:39:39.657Z,5.40
2018-09-14T03:42:10.870Z,5.07
2018-09-14T03:44:41.358Z,4.10
2018-09-14T03:47:11.623Z,5.90
2018-09-14T03:49:41.885Z,4.93
2018-09-14T03:52:12.583Z,4.80
2018-09-14T03:54:42.729Z,5.37
2018-09-14T03:57:13.129Z,4.87
2018-09-14T03:59:43.527Z,5.80
2018-09-14T04:02:14.650Z,6.20
2018-09-14T04:04:45.191Z,5.60
2018-09-14T04:07:15.785Z,6.80
2018-09-14T04:09:46.069Z,6.33
2018-09-14T04:12:17.246Z,5.93
2018-09-14T04:14:47.797Z,4.53
2018-09-14T04:17:18.554Z,5.87
2018-09-14T04:19:48.868Z,5.40
2018-09-14T04:22:19.774Z,6.70
2018-09-14T04:24:49.903Z,6.53
2018-09-14T04:27:20.335Z,6.30
2018-09-14T04:29:50.666Z,4.37
2018-09-14T04:32:21.534Z,5.93
2018-09-14T04:34:51.781Z,6.87
2018-09-14T04:37:22.080Z,5.87
2018-09-14T04:39:52.849Z,6.13
2018-09-14T04:42:23.744Z,5.90
2018-09-14T04:44:54.106Z,6.13
2018-09-14T04:47:24.551Z,6.00
2018-09-14T04:49:55.197Z,5.50
2018-09-14T04:52:26.526Z,5.63
2018-09-14T04:54:56.832Z,5.80
2018-09-14T04:57:27.185Z,6.00
2018-09-14T04:59:57.564Z,6.37
2018-09-14T05:02:28.377Z,7.43
2018-09-14T05:04:59.196Z,7.43
2018-09-14T05:07:29.501Z,7.03
2018-09-14T05:10:00.081Z,8.63
2018-09-14T05:12:30.945Z,6.67
2018-09-14T05:15:01.287Z,8.73
2018-09-14T05:17:32.049Z,10.90
2018-09-14T05:20:02.234Z,8.03
2018-09-14T05:22:33.042Z,6.30
2018-09-14T05:25:03.522Z,8.77
2018-09-14T05:27:33.750Z,5.27
2018-09-14T05:30:03.875Z,5.17
2018-09-14T05:32:34.797Z,5.63
2018-09-14T05:35:05.031Z,4.93
2018-09-14T05:37:35.313Z,4.83
2018-09-14T05:40:05.947Z,5.73
2018-09-14T05:42:36.419Z,5.50
2018-09-14T05:45:06.740Z,5.20
2018-09-14T05:47:37.155Z,6.07
2018-09-14T05:50:07.696Z,5.90
2018-09-14T05:52:38.896Z,5.03
2018-09-14T05:55:09.235Z,5.70
2018-09-14T05:57:39.787Z,6.17
2018-09-14T06:00:10.125Z,6.80
2018-09-14T06:02:41.274Z,7.40
2018-09-14T06:05:11.673Z,6.50
2018-09-14T06:07:41.869Z,6.50
2018-09-14T06:10:12.114Z,6.93
2018-09-14T06:12:42.736Z,6.27
2018-09-14T06:15:13.307Z,6.60
2018-09-14T06:17:44.184Z,6.67
2018-09-14T06:20:14.662Z,5.50
2018-09-14T06:22:45.877Z,5.87
2018-09-14T06:25:16.307Z,7.40
2018-09-14T06:27:46.063Z,6.07
2018-09-14T06:30:16.030Z,6.17
2018-09-14T06:32:46.950Z,5.50
2018-09-14T06:35:16.635Z,5.93
2018-09-14T06:37:46.514Z,7.10
2018-09-14T06:40:16.410Z,4.60
2018-09-14T06:42:46.214Z,5.23
2018-09-14T06:45:15.991Z,5.03
2018-09-14T06:47:45.851Z,4.70
2018-09-14T06:51:18.258Z,5.70
2018-09-14T06:53:48.182Z,4.43
2018-09-14T06:56:24.649Z,4.87
2018-09-14T06:58:54.449Z,3.90
2018-09-14T07:01:24.452Z,4.30
2018-09-14T07:03:54.544Z,4.43
2018-09-14T07:06:24.452Z,4.90
2018-09-14T07:08:54.200Z,4.17
2018-09-14T07:11:24.067Z,4.17
2018-09-14T07:13:53.906Z,4.70
2018-09-14T07:16:23.717Z,4.77
2018-09-14T07:18:53.598Z,4.77
2018-09-14T07:21:23.268Z,4.20
2018-09-14T07:23:52.990Z,5.53
2018-09-14T07:26:22.720Z,4.73
2018-09-14T07:28:52.399Z,4.20
2018-09-14T07:31:22.152Z,7.27
2018-09-14T07:33:51.918Z,4.63
2018-09-14T07:36:21.727Z,4.87
2018-09-14T07:38:51.536Z,4.47
2018-09-14T07:41:21.338Z,5.10
2018-09-14T07:43:51.062Z,4.60
2018-09-14T07:46:21.424Z,3.53
2018-09-14T07:48:51.592Z,4.47
2018-09-14T07:51:21.998Z,3.93
2018-09-14T07:53:52.562Z,3.90
2018-09-14T07:56:22.931Z,4.13
2018-09-14T07:58:57.126Z,4.07
2018-09-14T08:01:27.674Z,4.30
2018-09-14T08:03:58.026Z,4.10
2018-09-14T08:06:28.417Z,3.67
2018-09-14T08:08:58.625Z,4.63
2018-09-14T08:11:29.060Z,4.70
2018-09-14T08:13:59.392Z,4.37
2018-09-14T08:16:29.754Z,4.10
2018-09-14T08:19:03.863Z,4.27
2018-09-14T08:21:34.066Z,3.90
2018-09-14T08:24:04.392Z,4.03
2018-09-14T08:26:34.727Z,3.50
2018-09-14T08:29:05.735Z,3.50
2018-09-14T08:31:35.965Z,3.77
2018-09-14T08:34:06.472Z,4.27
2018-09-14T08:36:36.742Z,4.20
2018-09-14T08:39:11.361Z,3.73
2018-09-14T08:41:41.956Z,3.17
2018-09-14T08:44:12.482Z,3.80
2018-09-14T08:46:42.686Z,4.20
2018-09-14T08:49:12.991Z,3.63
2018-09-14T08:51:43.351Z,3.13
2018-09-14T08:54:13.930Z,3.37
2018-09-14T08:56:44.546Z,4.73
2018-09-14T08:59:15.300Z,3.10
2018-09-14T09:01:45.690Z,2.87
2018-09-14T09:04:16.124Z,3.97
2018-09-14T09:06:45.986Z,2.93
2018-09-14T09:09:16.667Z,3.63
2018-09-14T09:11:46.526Z,3.50
2018-09-14T09:14:16.274Z,3.07
2018-09-14T09:16:45.953Z,3.80
2018-09-14T09:19:16.219Z,2.70
2018-09-14T09:21:46.401Z,3.57
2018-09-14T09:24:16.350Z,3.30
2018-09-14T09:26:46.794Z,3.10
2018-09-14T09:29:17.674Z,3.13
2018-09-14T09:31:47.423Z,2.53
2018-09-14T09:34:17.764Z,2.30
2018-09-14T09:36:47.510Z,2.57
2018-09-14T09:39:17.462Z,2.73
2018-09-14T09:41:47.195Z,2.30
2018-09-14T09:44:16.932Z,3.80
2018-09-14T09:46:46.731Z,1.93
2018-09-14T09:49:16.442Z,1.77
2018-09-14T09:51:46.252Z,1.93
2018-09-14T09:54:16.117Z,2.10
2018-09-14T09:56:46.133Z,2.00
2018-09-14T09:59:15.844Z,2.30
2018-09-14T10:01:50.790Z,2.47
2018-09-14T10:04:26.151Z,2.80
2018-09-14T10:06:57.085Z,2.33
2018-09-14T10:09:27.783Z,1.83
2018-09-14T10:16:51.025Z,1.40
2018-09-14T10:19:21.521Z,1.77
2018-09-14T10:21:52.186Z,1.57
2018-09-14T10:24:21.927Z,1.60
2018-09-14T10:26:51.738Z,1.40
2018-09-14T10:29:21.454Z,1.40
2018-09-14T10:31:51.260Z,1.13
2018-09-14T10:34:21.019Z,1.33
2018-09-14T10:36:50.869Z,2.17
2018-09-14T10:39:20.671Z,1.90
2018-09-14T10:41:50.479Z,1.13
2018-09-14T10:44:20.254Z,1.80
2018-09-14T10:46:49.935Z,1.67
2018-09-14T10:49:19.570Z,1.30
2018-09-14T10:51:49.344Z,1.20
2018-09-14T10:54:19.348Z,2.03
2018-09-14T10:56:49.675Z,1.77
2018-09-14T10:59:19.422Z,1.83
2018-09-14T11:01:49.147Z,1.67
2018-09-14T11:04:19.040Z,1.60
2018-09-14T11:06:48.717Z,1.43
2018-09-14T11:09:18.628Z,2.23
2018-09-14T11:11:48.518Z,1.43
2018-09-14T11:14:18.410Z,1.50
2018-09-14T11:16:48.098Z,0.93
2018-09-14T11:19:17.901Z,4.30
2018-09-14T11:21:48.094Z,1.30
2018-09-14T11:24:17.893Z,1.93
2018-09-14T11:26:47.641Z,1.30
2018-09-14T11:29:17.466Z,1.70
2018-09-14T11:31:47.243Z,2.03
2018-09-14T11:34:16.990Z,1.20
2018-09-14T11:36:46.942Z,2.43
2018-09-14T11:39:17.003Z,2.20
2018-09-14T11:41:47.530Z,1.83
2018-09-14T11:44:18.981Z,2.20
2018-09-14T11:46:49.272Z,2.20
2018-09-14T11:49:19.562Z,2.10
2018-09-14T11:51:49.775Z,2.37
2018-09-14T11:54:20.480Z,1.70
2018-09-14T11:56:50.895Z,1.63
2018-09-14T11:59:21.576Z,1.87
2018-09-14T12:01:52.360Z,2.07
2018-09-14T12:04:23.206Z,2.47
2018-09-14T12:06:53.649Z,2.33
2018-09-14T12:09:24.077Z,2.53
2018-09-14T12:11:54.391Z,2.20
2018-09-14T12:14:25.187Z,2.43
2018-09-14T12:16:55.006Z,2.77
2018-09-14T12:19:24.677Z,2.40
2018-09-14T12:21:54.330Z,1.93
2018-09-14T12:24:24.092Z,2.27
2018-09-14T12:26:53.717Z,3.00
2018-09-14T12:29:23.334Z,2.00
2018-09-14T12:31:53.102Z,2.13
2018-09-14T12:34:22.751Z,2.17
2018-09-14T12:36:52.329Z,2.47
2018-09-14T12:39:22.190Z,2.37
2018-09-14T12:41:51.835Z,3.47
2018-09-14T12:44:22.021Z,2.10
2018-09-14T12:46:52.425Z,1.90
2018-09-14T12:49:22.886Z,2.43
2018-09-14T12:51:53.343Z,1.77
2018-09-14T12:54:24.385Z,2.10
2018-09-14T12:56:54.771Z,2.03
2018-09-14T12:59:25.384Z,1.67
2018-09-14T13:01:55.684Z,1.57
2018-09-14T13:04:26.753Z,2.80
2018-09-14T13:06:56.920Z,1.40
2018-09-14T13:09:27.247Z,2.60
2018-09-14T13:11:57.770Z,1.80
2018-09-14T13:14:27.533Z,2.50
2018-09-14T13:17:00.336Z,2.47
2018-09-14T13:19:31.176Z,3.13
2018-09-14T13:22:00.978Z,1.60
2018-09-14T13:24:32.298Z,2.47
2018-09-14T13:27:02.645Z,2.20
2018-09-14T13:29:32.328Z,2.10
2018-09-14T13:32:02.190Z,1.90
2018-09-14T13:34:32.081Z,1.87
2018-09-14T13:37:01.858Z,1.77
2018-09-14T13:39:31.658Z,1.90
2018-09-14T13:42:01.385Z,1.70
2018-09-14T13:44:31.118Z,2.43
2018-09-14T13:47:01.112Z,2.37
2018-09-14T13:49:30.832Z,1.80
2018-09-14T13:52:00.689Z,1.80
2018-09-14T13:54:30.749Z,2.27
2018-09-14T13:57:00.630Z,2.10
2018-09-14T13:59:30.291Z,2.27
2018-09-14T14:02:00.117Z,1.90
2018-09-14T14:04:29.883Z,2.33
2018-09-14T14:06:59.655Z,2.37
2018-09-14T14:09:29.442Z,2.77
2018-09-14T14:11:59.180Z,2.70
2018-09-14T14:14:28.959Z,3.30
2018-09-14T14:20:46.133Z,3.77
2018-09-14T14:23:16.425Z,2.70
2018-09-14T14:25:46.200Z,4.20
2018-09-14T14:28:16.102Z,3.20
2018-09-14T14:30:45.980Z,4.07
2018-09-14T14:33:15.624Z,3.90
2018-09-14T14:35:45.460Z,3.27
2018-09-14T14:38:15.203Z,3.27
2018-09-14T14:40:46.010Z,2.77
2018-09-14T14:43:15.734Z,3.53
2018-09-14T14:45:45.585Z,2.70
2018-09-14T14:48:15.440Z,3.27
2018-09-14T14:50:45.185Z,2.90
2018-09-14T14:53:14.965Z,2.13
2018-09-14T14:55:44.680Z,3.20
2018-09-14T14:58:14.420Z,2.53
2018-09-14T15:00:44.209Z,3.07
2018-09-14T15:03:13.957Z,2.60
2018-09-14T15:05:43.816Z,2.80
2018-09-14T15:08:13.630Z,3.40
2018-09-14T15:10:43.438Z,3.40
2018-09-14T15:13:13.318Z,2.93
2018-09-14T15:15:43.206Z,3.40
2018-09-14T15:18:12.997Z,2.80
2018-09-14T15:20:42.881Z,3.20
2018-09-14T15:23:43.920Z,2.93
2018-09-14T15:26:13.686Z,3.30
2018-09-14T15:28:43.485Z,3.27
2018-09-14T15:31:13.806Z,3.27
2018-09-14T15:33:44.062Z,3.17
2018-09-14T15:36:14.272Z,3.07
2018-09-14T15:38:44.373Z,4.37
2018-09-14T15:41:14.915Z,3.30
2018-09-14T15:43:45.516Z,3.97
2018-09-14T15:46:16.861Z,2.87
2018-09-14T15:48:46.634Z,4.27
2018-09-14T15:51:16.632Z,3.67
2018-09-14T15:53:47.298Z,2.80
2018-09-14T15:56:18.780Z,3.30
2018-09-14T15:58:49.225Z,3.63
2018-09-14T16:01:19.633Z,4.40
2018-09-14T16:03:49.828Z,4.90
2018-09-14T16:06:20.232Z,6.93
2018-09-14T16:08:50.402Z,9.10
2018-09-14T16:11:20.931Z,9.23
2018-09-14T16:13:51.372Z,6.83
2018-09-14T16:16:22.461Z,4.57
2018-09-14T16:18:52.821Z,4.07
2018-09-14T16:21:23.129Z,7.30
2018-09-14T16:23:53.945Z,5.80
2018-09-14T16:26:25.345Z,5.93
2018-09-14T16:28:55.833Z,3.40
2018-09-14T16:31:26.462Z,4.20
2018-09-14T16:33:57.104Z,4.93
2018-09-14T16:36:30.935Z,5.70
2018-09-14T16:39:01.353Z,4.50
2018-09-14T16:41:31.876Z,4.33
2018-09-14T16:44:02.771Z,4.97
2018-09-14T16:46:33.719Z,5.00
2018-09-14T16:49:03.941Z,4.40
2018-09-14T16:51:34.391Z,5.70
2018-09-14T16:54:04.838Z,4.50
2018-09-14T16:56:35.963Z,5.17
2018-09-14T16:59:06.536Z,5.50
2018-09-14T17:01:37.033Z,5.70
2018-09-14T17:04:07.375Z,5.93
2018-09-14T17:06:38.185Z,6.50
2018-09-14T17:09:10.090Z,5.90
2018-09-14T17:11:40.778Z,9.20
2018-09-14T17:14:11.603Z,9.23
2018-09-14T17:16:43.248Z,9.10
2018-09-14T17:19:13.976Z,8.03
2018-09-14T17:21:44.599Z,5.70
2018-09-14T17:24:15.368Z,6.80
2018-09-14T17:26:46.009Z,5.70
2018-09-14T17:29:16.026Z,7.20
2018-09-14T17:31:46.650Z,5.33
2018-09-14T17:34:17.178Z,5.57
2018-09-14T17:36:48.091Z,7.20
2018-09-14T17:39:18.341Z,6.57
2018-09-14T17:41:48.698Z,6.70
2018-09-14T17:44:19.704Z,6.37
2018-09-14T17:46:50.803Z,6.00
2018-09-14T17:49:21.091Z,6.27
2018-09-14T17:51:51.806Z,6.10
2018-09-14T17:54:22.009Z,5.50
2018-09-14T17:56:53.019Z,5.40
2018-09-14T17:59:23.273Z,8.83
2018-09-14T18:01:53.489Z,8.23
2018-09-14T18:04:23.910Z,7.70
2018-09-14T18:06:54.616Z,6.40
2018-09-14T18:09:25.073Z,7.20
2018-09-14T18:11:55.496Z,8.40
2018-09-14T18:14:25.747Z,7.80
2018-09-14T18:16:57.378Z,6.87
2018-09-14T18:19:27.782Z,6.07
2018-09-14T18:21:57.924Z,4.50
2018-09-14T18:24:28.594Z,5.17
2018-09-14T18:26:59.785Z,4.60
2018-09-14T18:29:30.334Z,5.20
2018-09-14T18:32:00.758Z,4.43
2018-09-14T18:34:30.837Z,5.00
2018-09-14T18:37:02.705Z,4.93
2018-09-14T18:39:33.207Z,5.10
2018-09-14T18:42:03.693Z,6.50
2018-09-14T18:44:34.223Z,5.20
2018-09-14T18:47:05.670Z,5.10
2018-09-14T18:49:35.984Z,6.60
2018-09-14T18:52:06.427Z,4.77
2018-09-14T18:54:36.543Z,3.67
2018-09-14T18:57:07.002Z,3.73
2018-09-14T18:59:37.580Z,4.77
2018-09-14T19:02:07.990Z,4.43
2018-09-14T19:04:38.705Z,4.00
2018-09-14T19:07:09.581Z,4.27
2018-09-14T19:09:40.037Z,5.50
2018-09-14T19:12:10.576Z,4.80
2018-09-14T19:14:40.738Z,4.30
2018-09-14T19:17:11.798Z,5.23
2018-09-14T19:19:42.215Z,5.30
2018-09-14T19:22:12.543Z,5.10
2018-09-14T19:24:43.081Z,4.40
2018-09-14T19:27:13.711Z,5.20
2018-09-14T19:29:44.179Z,7.97
2018-09-14T19:32:14.922Z,4.33
2018-09-14T19:34:44.966Z,5.10
2018-09-14T19:37:15.923Z,3.80
2018-09-14T19:39:46.209Z,4.33
2018-09-14T19:42:16.459Z,4.70
2018-09-14T19:44:46.795Z,4.03
2018-09-14T19:47:18.411Z,4.30
2018-09-14T19:49:49.099Z,4.20
2018-09-14T19:52:19.162Z,4.00
2018-09-14T19:54:49.338Z,5.00
2018-09-14T19:57:20.195Z,4.10
2018-09-14T19:59:50.635Z,4.67
2018-09-14T20:02:20.911Z,4.50
2018-09-14T20:04:51.067Z,4.10
2018-09-14T20:07:22.764Z,5.23
2018-09-14T20:09:53.267Z,4.43
2018-09-14T20:12:23.351Z,3.50
2018-09-14T20:14:53.736Z,4.40
2018-09-14T20:17:25.275Z,4.93
2018-09-14T20:19:55.793Z,3.83
2018-09-14T20:22:26.541Z,3.53
2018-09-14T20:24:57.398Z,3.43
2018-09-14T20:27:28.049Z,4.27
2018-09-14T20:29:58.453Z,4.67
2018-09-14T20:32:28.986Z,4.10
2018-09-14T20:34:59.470Z,4.60
2018-09-14T20:37:30.598Z,4.30
2018-09-14T20:40:01.156Z,4.27
2018-09-14T20:42:32.046Z,4.67
2018-09-14T20:45:02.672Z,3.60
2018-09-14T20:47:33.704Z,4.17
2018-09-14T20:50:04.082Z,3.97
2018-09-14T20:52:34.382Z,4.23
2018-09-14T20:55:05.067Z,4.60
2018-09-14T20:57:35.693Z,3.80
2018-09-14T21:00:06.229Z,3.90
2018-09-14T21:02:36.750Z,4.10
2018-09-14T21:05:07.382Z,4.20
2018-09-14T21:07:38.429Z,4.37
2018-09-14T21:10:08.911Z,3.53
2018-09-14T21:12:39.178Z,4.10
2018-09-14T21:15:09.252Z,4.33
2018-09-14T21:17:40.251Z,3.20
2018-09-14T21:20:10.386Z,4.20
2018-09-14T21:22:41.261Z,3.53
2018-09-14T21:25:12.104Z,4.20
2018-09-14T21:27:42.578Z,4.37
2018-09-14T21:30:12.770Z,4.20
2018-09-14T21:32:43.279Z,3.40
2018-09-14T21:35:13.528Z,3.20
2018-09-14T21:37:45.056Z,4.33
2018-09-14T21:40:15.395Z,3.97
2018-09-14T21:42:45.857Z,4.10
2018-09-14T21:45:16.106Z,4.57
2018-09-14T21:47:47.325Z,4.50
2018-09-14T21:50:17.561Z,4.73
2018-09-14T21:52:48.178Z,4.67
2018-09-14T21:55:18.702Z,4.17
2018-09-14T21:57:49.614Z,4.73
2018-09-14T22:01:53.992Z,4.07
2018-09-14T22:04:24.359Z,4.20
2018-09-14T22:06:54.735Z,4.10
2018-09-14T22:09:25.048Z,4.20
2018-09-14T22:11:55.524Z,4.60
2018-09-14T22:14:25.702Z,4.37
2018-09-14T22:16:56.069Z,5.17
2018-09-14T22:19:26.583Z,4.40
2018-09-14T22:21:56.824Z,3.50
2018-09-14T22:24:27.435Z,4.53
2018-09-14T22:26:58.538Z,6.33
2018-09-14T22:29:28.873Z,5.80
2018-09-14T22:31:59.206Z,4.87
2018-09-14T22:34:29.557Z,5.37
2018-09-14T22:37:00.466Z,3.83
2018-09-14T22:39:31.058Z,3.83
2018-09-14T22:42:01.447Z,4.13
2018-09-14T22:44:31.894Z,4.93
2018-09-14T22:47:03.618Z,4.20
2018-09-14T22:49:34.331Z,4.43
2018-09-14T22:52:04.875Z,4.10
2018-09-14T22:54:35.414Z,3.70
2018-09-14T22:57:06.537Z,3.90
2018-09-14T22:59:36.762Z,4.47
2018-09-14T23:02:07.174Z,4.57
2018-09-14T23:04:37.905Z,4.43
2018-09-14T23:07:08.791Z,4.13
2018-09-14T23:09:39.153Z,4.73
2018-09-14T23:12:09.429Z,4.27
2018-09-14T23:14:39.574Z,4.17
2018-09-14T23:17:09.954Z,4.57
2018-09-14T23:19:40.211Z,4.53
2018-09-14T23:22:10.682Z,5.33
2018-09-14T23:24:41.149Z,3.83
2018-09-14T23:27:12.196Z,6.07
2018-09-14T23:29:42.621Z,3.83
2018-09-14T23:32:12.881Z,4.70
2018-09-14T23:34:43.429Z,4.63
2018-09-14T23:37:14.633Z,4.60
2018-09-14T23:39:44.754Z,4.60
2018-09-14T23:42:14.863Z,4.00
2018-09-14T23:44:45.253Z,4.83
2018-09-14T23:47:16.355Z,4.23
2018-09-14T23:49:46.711Z,4.30
2018-09-14T23:52:17.144Z,5.70
2018-09-14T23:54:47.499Z,5.47
2018-09-14T23:57:18.399Z,4.40
2018-09-14T23:59:49.223Z,5.07
